CLX334 LDSP-LROP
Flight info
| Callsign | CLX334 |
|---|---|
| Flight time | 0h 47m |
| Altitude | 35000 |
| Route | KENEM DCT KEB Y88 VEBAR DCT TPL DCT ANASA DCT TOSVI |
| Aircraft | B748/H-SDE3FGHIM1M2RWXY/LB1 |
Departure
| Time | 2026-05-07 16:23 |
|---|---|
| Airport | Split Saint Jerome Airport (LDSP) |
Arrival
| Time | 2026-05-07 17:11 |
|---|---|
| Airport | Bucharest Henri Coandă International Airport (LROP) |
| Time | Latitude | Longitude | Altitude | Speed | Heading |
|---|---|---|---|---|---|
| 2026-05-07 16:11 | 43.53768 | 16.29919 | 74 ft | 0 kts | 114° |
| 2026-05-07 16:13 | 43.53697 | 16.29804 | 74 ft | 0 kts | 114° |
| 2026-05-07 16:17 | 43.53698 | 16.29803 | 75 ft | 2 kts | 114° |
| 2026-05-07 16:17 | 43.53706 | 16.29783 | 61 ft | 2 kts | 129° |
| 2026-05-07 16:17 | 43.53718 | 16.29768 | 64 ft | 2 kts | 160° |
| 2026-05-07 16:18 | 43.53734 | 16.29765 | 64 ft | 2 kts | 201° |
| 2026-05-07 16:18 | 43.53747 | 16.29775 | 64 ft | 1 kts | 226° |
| 2026-05-07 16:18 | 43.53750 | 16.29779 | 64 ft | 0 kts | 231° |
| 2026-05-07 16:21 | 43.53742 | 16.29766 | 64 ft | 3 kts | 230° |
| 2026-05-07 16:21 | 43.53721 | 16.29731 | 66 ft | 6 kts | 231° |
| 2026-05-07 16:21 | 43.53689 | 16.29675 | 64 ft | 9 kts | 231° |
| 2026-05-07 16:22 | 43.53222 | 16.28577 | 90 ft | 0 kts | 52° |
| 2026-05-07 16:22 | 43.53250 | 16.28628 | 88 ft | 30 kts | 53° |
| 2026-05-07 16:22 | 43.53568 | 16.29207 | 90 ft | 120 kts | 52° |
| 2026-05-07 16:23 | 43.54219 | 16.30377 | 173 ft | 174 kts | 55° |
| 2026-05-07 16:23 | 43.54930 | 16.31824 | 466 ft | 190 kts | 65° |
| 2026-05-07 16:23 | 43.55396 | 16.33636 | 588 ft | 216 kts | 77° |
| 2026-05-07 16:23 | 43.55506 | 16.35730 | 1019 ft | 220 kts | 106° |
| 2026-05-07 16:24 | 43.54699 | 16.37367 | 2177 ft | 197 kts | 145° |
| 2026-05-07 16:24 | 43.53475 | 16.37943 | 3381 ft | 183 kts | 179° |
| 2026-05-07 16:24 | 43.52176 | 16.38160 | 3735 ft | 207 kts | 151° |
| 2026-05-07 16:24 | 43.51065 | 16.39604 | 4114 ft | 233 kts | 120° |
| 2026-05-07 16:25 | 43.50659 | 16.41879 | 4575 ft | 262 kts | 89° |
| 2026-05-07 16:25 | 43.51185 | 16.44321 | 5379 ft | 273 kts | 62° |
| 2026-05-07 16:25 | 43.52222 | 16.46568 | 6111 ft | 283 kts | 58° |
| 2026-05-07 16:25 | 43.53223 | 16.48916 | 6945 ft | 285 kts | 66° |
| 2026-05-07 16:26 | 43.53922 | 16.51443 | 7662 ft | 289 kts | 76° |
| 2026-05-07 16:26 | 43.54466 | 16.54171 | 8449 ft | 292 kts | 76° |
| 2026-05-07 16:26 | 43.55129 | 16.57170 | 9296 ft | 298 kts | 73° |
| 2026-05-07 16:26 | 43.56739 | 16.63741 | 10660 ft | 321 kts | 73° |
| 2026-05-07 16:27 | 43.60691 | 16.80500 | 12667 ft | 391 kts | 73° |
| 2026-05-07 16:27 | 43.64156 | 16.95271 | 15008 ft | 412 kts | 73° |
| 2026-05-07 16:27 | 43.67741 | 17.10656 | 17067 ft | 428 kts | 73° |
| 2026-05-07 16:27 | 43.71431 | 17.26602 | 18950 ft | 442 kts | 73° |
| 2026-05-07 16:28 | 43.75212 | 17.43057 | 20506 ft | 456 kts | 73° |
| 2026-05-07 16:28 | 43.79095 | 17.60090 | 21859 ft | 470 kts | 73° |
| 2026-05-07 16:28 | 43.83055 | 17.77596 | 23232 ft | 482 kts | 73° |
| 2026-05-07 16:28 | 43.87083 | 17.95552 | 24337 ft | 493 kts | 73° |
| 2026-05-07 16:29 | 43.91167 | 18.13913 | 25353 ft | 501 kts | 73° |
| 2026-05-07 16:29 | 43.95271 | 18.32521 | 26413 ft | 509 kts | 73° |
| 2026-05-07 16:29 | 43.99416 | 18.51487 | 27509 ft | 516 kts | 73° |
| 2026-05-07 16:29 | 44.02459 | 18.65515 | 28325 ft | 522 kts | 73° |
| 2026-05-07 16:30 | 44.03505 | 18.70361 | 28613 ft | 524 kts | 73° |
| 2026-05-07 16:30 | 44.04551 | 18.75216 | 28910 ft | 525 kts | 73° |
| 2026-05-07 16:30 | 44.05599 | 18.80091 | 29214 ft | 528 kts | 73° |
| 2026-05-07 16:30 | 44.06649 | 18.84989 | 29505 ft | 530 kts | 73° |
| 2026-05-07 16:31 | 44.07701 | 18.89910 | 29841 ft | 531 kts | 73° |
| 2026-05-07 16:31 | 44.08755 | 18.94847 | 30149 ft | 534 kts | 73° |
| 2026-05-07 16:31 | 44.09799 | 18.99749 | 30434 ft | 535 kts | 73° |
| 2026-05-07 16:31 | 44.10854 | 19.04717 | 30689 ft | 538 kts | 73° |
| 2026-05-07 16:32 | 44.11912 | 19.09712 | 30961 ft | 539 kts | 73° |
| 2026-05-07 16:32 | 44.12966 | 19.14718 | 31302 ft | 540 kts | 75° |
| 2026-05-07 16:32 | 44.13651 | 19.19861 | 31599 ft | 541 kts | 86° |
| 2026-05-07 16:32 | 44.13768 | 19.25074 | 31987 ft | 539 kts | 90° |
| 2026-05-07 16:33 | 44.13801 | 19.30285 | 32448 ft | 537 kts | 90° |
| 2026-05-07 16:33 | 44.13835 | 19.35481 | 32933 ft | 535 kts | 90° |
| 2026-05-07 16:33 | 44.13895 | 19.40653 | 33423 ft | 534 kts | 90° |
| 2026-05-07 16:33 | 44.13953 | 19.45812 | 33896 ft | 532 kts | 90° |
| 2026-05-07 16:34 | 44.13993 | 19.50948 | 34311 ft | 530 kts | 90° |
| 2026-05-07 16:34 | 44.14026 | 19.56079 | 34687 ft | 529 kts | 90° |
| 2026-05-07 16:34 | 44.14066 | 19.61193 | 34986 ft | 529 kts | 90° |
| 2026-05-07 16:35 | 44.14144 | 19.71496 | 35001 ft | 531 kts | 90° |
| 2026-05-07 16:35 | 44.14202 | 19.81745 | 35019 ft | 528 kts | 90° |
| 2026-05-07 16:36 | 44.14258 | 19.91965 | 35026 ft | 527 kts | 90° |
| 2026-05-07 16:36 | 44.14300 | 20.02080 | 35015 ft | 526 kts | 90° |
| 2026-05-07 16:37 | 44.14335 | 20.12242 | 35018 ft | 525 kts | 90° |
| 2026-05-07 16:37 | 44.14361 | 20.22444 | 35016 ft | 524 kts | 90° |
| 2026-05-07 16:38 | 44.14377 | 20.32533 | 35021 ft | 524 kts | 90° |
| 2026-05-07 16:38 | 44.14385 | 20.42672 | 35018 ft | 524 kts | 90° |
| 2026-05-07 16:39 | 44.14384 | 20.52814 | 35020 ft | 524 kts | 90° |
| 2026-05-07 16:39 | 44.14374 | 20.62941 | 35022 ft | 523 kts | 90° |
| 2026-05-07 16:40 | 44.14360 | 20.73060 | 35020 ft | 522 kts | 88° |
| 2026-05-07 16:40 | 44.15206 | 20.83101 | 35031 ft | 523 kts | 81° |
| 2026-05-07 16:41 | 44.16239 | 20.93119 | 35034 ft | 522 kts | 82° |
| 2026-05-07 16:41 | 44.17210 | 21.03147 | 35038 ft | 522 kts | 82° |
| 2026-05-07 16:42 | 44.18207 | 21.13157 | 35038 ft | 522 kts | 82° |
| 2026-05-07 16:42 | 44.19010 | 21.21500 | 35038 ft | 522 kts | 82° |
| 2026-05-07 16:43 | 44.19982 | 21.31525 | 35036 ft | 522 kts | 82° |
| 2026-05-07 16:43 | 44.20937 | 21.41541 | 35039 ft | 521 kts | 82° |
| 2026-05-07 16:44 | 44.21887 | 21.51561 | 35034 ft | 521 kts | 82° |
| 2026-05-07 16:44 | 44.22828 | 21.61599 | 35050 ft | 526 kts | 82° |
| 2026-05-07 16:45 | 44.23777 | 21.71823 | 35041 ft | 535 kts | 82° |
| 2026-05-07 16:45 | 44.24725 | 21.82135 | 35041 ft | 536 kts | 82° |
| 2026-05-07 16:46 | 44.25608 | 21.91835 | 35046 ft | 536 kts | 82° |
| 2026-05-07 16:46 | 44.26544 | 22.02216 | 35041 ft | 536 kts | 82° |
| 2026-05-07 16:47 | 44.27464 | 22.12538 | 35038 ft | 535 kts | 82° |
| 2026-05-07 16:47 | 44.28374 | 22.22847 | 35037 ft | 535 kts | 82° |
| 2026-05-07 16:48 | 44.29276 | 22.33171 | 35037 ft | 536 kts | 82° |
| 2026-05-07 16:48 | 44.30162 | 22.43429 | 35037 ft | 536 kts | 82° |
| 2026-05-07 16:49 | 44.31053 | 22.53827 | 35031 ft | 536 kts | 81° |
| 2026-05-07 16:49 | 44.32694 | 22.63888 | 35034 ft | 534 kts | 74° |
| 2026-05-07 16:50 | 44.34553 | 22.73945 | 35035 ft | 535 kts | 75° |
| 2026-05-07 16:50 | 44.36341 | 22.84030 | 35041 ft | 534 kts | 74° |
| 2026-05-07 16:51 | 44.38161 | 22.94095 | 35036 ft | 534 kts | 74° |
| 2026-05-07 16:51 | 44.39944 | 23.04178 | 35044 ft | 534 kts | 74° |
| 2026-05-07 16:52 | 44.41735 | 23.14252 | 35043 ft | 534 kts | 74° |
| 2026-05-07 16:52 | 44.44116 | 23.27812 | 35039 ft | 533 kts | 74° |
| 2026-05-07 16:53 | 44.51094 | 23.68085 | 35045 ft | 532 kts | 74° |
| 2026-05-07 16:53 | 44.54511 | 23.88143 | 33272 ft | 530 kts | 73° |
| 2026-05-07 16:53 | 44.57829 | 24.07841 | 30752 ft | 519 kts | 74° |
| 2026-05-07 16:53 | 44.61074 | 24.27367 | 28812 ft | 491 kts | 75° |
| 2026-05-07 16:54 | 44.63892 | 24.44465 | 26982 ft | 474 kts | 75° |
| 2026-05-07 16:54 | 44.64632 | 24.48972 | 26543 ft | 475 kts | 75° |
| 2026-05-07 16:54 | 44.65370 | 24.53492 | 26118 ft | 475 kts | 75° |
| 2026-05-07 16:54 | 44.66103 | 24.58002 | 25695 ft | 472 kts | 75° |
| 2026-05-07 16:55 | 44.66830 | 24.62488 | 25281 ft | 469 kts | 75° |
| 2026-05-07 16:55 | 44.67551 | 24.66933 | 24884 ft | 465 kts | 76° |
| 2026-05-07 16:55 | 44.68267 | 24.71364 | 24192 ft | 465 kts | 76° |
| 2026-05-07 16:55 | 44.68974 | 24.75753 | 23273 ft | 457 kts | 76° |
| 2026-05-07 16:56 | 44.69666 | 24.80069 | 22148 ft | 447 kts | 76° |
| 2026-05-07 16:56 | 44.70342 | 24.84286 | 20958 ft | 439 kts | 76° |
| 2026-05-07 16:56 | 44.71655 | 24.92504 | 18676 ft | 423 kts | 77° |
| 2026-05-07 16:57 | 44.72292 | 24.96507 | 17484 ft | 416 kts | 77° |
| 2026-05-07 16:57 | 44.72914 | 25.00431 | 16276 ft | 405 kts | 77° |
| 2026-05-07 16:57 | 44.73515 | 25.04234 | 15111 ft | 393 kts | 77° |
| 2026-05-07 16:57 | 44.73965 | 25.07954 | 14005 ft | 381 kts | 89° |
| 2026-05-07 16:58 | 44.73751 | 25.11179 | 12958 ft | 371 kts | 105° |
| 2026-05-07 16:58 | 44.72926 | 25.14558 | 11792 ft | 361 kts | 114° |
| 2026-05-07 16:58 | 44.71908 | 25.17742 | 10619 ft | 353 kts | 114° |
| 2026-05-07 16:58 | 44.70978 | 25.20854 | 9495 ft | 347 kts | 110° |
| 2026-05-07 16:59 | 44.70222 | 25.24043 | 8302 ft | 340 kts | 107° |
| 2026-05-07 16:59 | 44.69509 | 25.27180 | 7148 ft | 334 kts | 109° |
| 2026-05-07 16:59 | 44.68744 | 25.30223 | 6249 ft | 323 kts | 110° |
| 2026-05-07 16:59 | 44.68007 | 25.33063 | 5837 ft | 297 kts | 110° |
| 2026-05-07 17:00 | 44.67344 | 25.35706 | 5386 ft | 279 kts | 109° |
| 2026-05-07 17:00 | 44.66718 | 25.38237 | 4956 ft | 271 kts | 109° |
| 2026-05-07 17:00 | 44.66098 | 25.40712 | 4526 ft | 267 kts | 110° |
| 2026-05-07 17:00 | 44.65482 | 25.43156 | 4115 ft | 264 kts | 110° |
| 2026-05-07 17:01 | 44.64876 | 25.45561 | 4000 ft | 261 kts | 110° |
| 2026-05-07 17:01 | 44.64265 | 25.47984 | 3997 ft | 264 kts | 110° |
| 2026-05-07 17:01 | 44.63650 | 25.50423 | 4008 ft | 265 kts | 110° |
| 2026-05-07 17:01 | 44.63036 | 25.52858 | 3990 ft | 264 kts | 110° |
| 2026-05-07 17:02 | 44.62422 | 25.55290 | 3996 ft | 265 kts | 110° |
| 2026-05-07 17:02 | 44.61799 | 25.57750 | 3704 ft | 268 kts | 110° |
| 2026-05-07 17:02 | 44.61184 | 25.60184 | 3244 ft | 262 kts | 111° |
| 2026-05-07 17:02 | 44.60577 | 25.62577 | 2782 ft | 259 kts | 110° |
| 2026-05-07 17:03 | 44.59978 | 25.64934 | 2511 ft | 252 kts | 110° |
| 2026-05-07 17:03 | 44.59740 | 25.65875 | 2500 ft | 254 kts | 110° |
| 2026-05-07 17:04 | 44.59344 | 25.67434 | 2502 ft | 257 kts | 111° |
| 2026-05-07 17:04 | 44.58998 | 25.68793 | 2507 ft | 257 kts | 110° |
| 2026-05-07 17:04 | 44.58398 | 25.71154 | 2501 ft | 257 kts | 110° |
| 2026-05-07 17:04 | 44.57831 | 25.73387 | 2485 ft | 226 kts | 111° |
| 2026-05-07 17:05 | 44.57346 | 25.75295 | 2471 ft | 193 kts | 111° |
| 2026-05-07 17:05 | 44.56903 | 25.77024 | 2482 ft | 186 kts | 111° |
| 2026-05-07 17:05 | 44.56474 | 25.78703 | 2474 ft | 174 kts | 111° |
| 2026-05-07 17:05 | 44.56087 | 25.80222 | 2480 ft | 165 kts | 110° |
| 2026-05-07 17:06 | 44.55816 | 25.81770 | 2510 ft | 163 kts | 103° |
| 2026-05-07 17:06 | 44.55820 | 25.83357 | 2506 ft | 162 kts | 84° |
| 2026-05-07 17:06 | 44.55887 | 25.84945 | 2499 ft | 164 kts | 83° |
| 2026-05-07 17:06 | 44.55996 | 25.86524 | 2510 ft | 162 kts | 88° |
| 2026-05-07 17:07 | 44.56131 | 25.88098 | 2506 ft | 162 kts | 87° |
| 2026-05-07 17:07 | 44.56248 | 25.89682 | 2504 ft | 163 kts | 86° |
| 2026-05-07 17:07 | 44.56367 | 25.91258 | 2505 ft | 162 kts | 86° |
| 2026-05-07 17:07 | 44.56488 | 25.92844 | 2499 ft | 165 kts | 87° |
| 2026-05-07 17:08 | 44.56608 | 25.94443 | 2282 ft | 162 kts | 86° |
| 2026-05-07 17:08 | 44.56728 | 25.96012 | 2074 ft | 161 kts | 86° |
| 2026-05-07 17:08 | 44.56845 | 25.97564 | 1869 ft | 160 kts | 87° |
| 2026-05-07 17:08 | 44.56958 | 25.99090 | 1661 ft | 159 kts | 86° |
| 2026-05-07 17:09 | 44.57070 | 26.00622 | 1440 ft | 158 kts | 86° |
| 2026-05-07 17:09 | 44.57188 | 26.02154 | 1230 ft | 161 kts | 86° |
| 2026-05-07 17:09 | 44.57316 | 26.03707 | 969 ft | 159 kts | 84° |
| 2026-05-07 17:09 | 44.57425 | 26.05237 | 730 ft | 160 kts | 84° |
| 2026-05-07 17:10 | 44.57540 | 26.06753 | 505 ft | 154 kts | 83° |
| 2026-05-07 17:10 | 44.57656 | 26.08253 | 365 ft | 153 kts | 84° |
| 2026-05-07 17:10 | 44.57750 | 26.09451 | 325 ft | 111 kts | 83° |
| 2026-05-07 17:10 | 44.57809 | 26.10274 | 329 ft | 65 kts | 85° |
| 2026-05-07 17:11 | 44.57834 | 26.10816 | 324 ft | 52 kts | 95° |
| 2026-05-07 17:11 | 44.57769 | 26.11116 | 324 ft | 0 kts | 115° |
| 2026-05-07 17:11 | 44.57767 | 26.11121 | 325 ft | 1 kts | 117° |
| 2026-05-07 17:12 | 44.57763 | 26.11131 | 322 ft | 0 kts | 118° |